• Join FlightAware (Why Join?)
  • Login
  • US Flag 
06:11PM EDT


 

Airport Tracker/Info


-or-


 

Live Flight TrackerFlight Track Log ✈ SWA862 ✈ 08-Apr-2013 ✈ KRDU - KBWI

Flight Track Log - Related Links

Times and Time Zones

All times are in EDT time to prevent confusion due to time zone crossing. See the SWA862 flight status page for this flight to view local times or setup timezone preferences in your user account.

Time Position Orientation Groundspeed Altitude Reporting Facility
EDT Latitude Longitude Course Direction KTS MPH feet Rate Location/Type
08:18PM 35.8431 -78.8358 229° Southwest 162 186 3,200  Level Washington Center
08:19PM 35.8436 -78.8897 271° West 208 239 6,400 3,780 Climbing Washington Center
08:20PM 35.9000 -78.9614 314° West 267 307 10,900 2,160 Climbing Washington Center
08:21PM 36.0203 -78.9125 18° North 332 382 12,500 1,920 Climbing Washington Center
08:22PM 36.0708 -78.8169 57° Northeast 338 389 16,000 3,720 Climbing Washington Center
08:23PM 36.1303 -78.7011 58° Northeast 359 413 20,000 3,420 Climbing Washington Center
08:24PM 36.1897 -78.5825 58° Northeast 387 445 22,900 1,500 Climbing Washington Center
08:25PM 36.2486 -78.4714 57° Northeast 392 451 23,000  Climbing Washington Center
08:26PM 36.3158 -78.3733 50° Northeast 378 435 23,000  Level Washington Center
08:27PM 36.3989 -78.3014 35° Northeast 356 410 23,000  Level Washington Center
08:28PM 36.4797 -78.2242 38° Northeast 361 415 23,000  Level Washington Center
08:29PM 36.5628 -78.1444 38° Northeast 366 421 23,000  Level Washington Center
08:30PM 36.6522 -78.0617 37° Northeast 366 421 23,000  Level Washington Center
08:31PM 36.7331 -77.9842 38° Northeast 366 421 23,000  Level Washington Center
08:32PM 36.8181 -77.9036 37° Northeast 373 429 23,000  Level Washington Center
08:33PM 36.9114 -77.8258 34° Northeast 385 443 23,000  Level Washington Center
08:34PM 37.0111 -77.7403 34° Northeast 409 471 23,000  Level Washington Center
08:35PM 37.1106 -77.6572 34° Northeast 420 483 23,000  Level Washington Center
08:36PM 37.2078 -77.5736 34° Northeast 420 483 23,000  Level Washington Center
08:37PM 37.3072 -77.4981 31° Northeast 420 483 23,000  Level Washington Center
08:38PM 37.4161 -77.4589 16° North 405 466 23,000  Level Washington Center
08:39PM 37.5294 -77.4222 14° North 405 466 23,000  Level Washington Center
08:40PM 37.6406 -77.3856 15° North 405 466 23,000  Level Washington Center
08:41PM 37.7536 -77.3489 14° North 405 466 23,000  Level Washington Center
08:42PM 37.8628 -77.3094 16° North 405 466 23,000 -360 Level Washington Center
08:44PM 37.9530 -77.2611 23° Northeast  Level FlightAware Approximate
08:44PM 38.0869 -77.2381 23° Northeast 411 473 22,000  Level Washington Center
08:45PM 38.1917 -77.2006 16° North 400 460 19,400 -2,520 Descending Washington Center
08:46PM 38.2922 -77.1683 14° North 383 441 17,000 -2,160 Descending Washington Center
08:47PM 38.3886 -77.1281 18° North 371 427 15,100 -1,740 Descending Washington Center
08:48PM 38.4564 -77.0500 42° Northeast 353 406 13,600 -1,500 Descending Washington Center
08:49PM 38.5283 -76.9611 44° Northeast 353 406 12,100 -1,500 Descending Washington Center
08:50PM 38.5981 -76.8800 42° Northeast 348 400 10,600 -1,080 Descending Washington Center
08:51PM 38.6614 -76.8039 43° Northeast 322 371 10,000 -900 Descending Washington Center
08:52PM 38.7161 -76.7303 46° Northeast 299 344 8,900 -1,200 Descending Washington Center
08:53PM 38.7544 -76.6378 62° Northeast 287 330 7,600 -1,500 Descending Washington Center
08:54PM 38.7833 -76.5833 56° Northeast 294 338 6,600 -1,320 Descending Potomac TRACON
08:55PM 38.8500 -76.5333 30° Northeast 293 337 5,600 -1,020 Descending Potomac TRACON
08:56PM 38.9167 -76.5667 339° North 283 326 4,700 -780 Descending Potomac TRACON
08:57PM 38.9833 -76.6167 330° Northwest 277 319 4,200 -360 Descending Potomac TRACON
08:58PM 39.0167 -76.7000 297° West 262 302 4,000 -360 Descending Potomac TRACON
08:59PM 39.0500 -76.7667 303° West 257 296 3,500 -600 Descending Potomac TRACON
09:00PM 39.1000 -76.8333 314° West 238 274 2,900 -660 Descending Potomac TRACON
09:01PM 39.1500 -76.8667 333° Northwest 235 270 2,200 -660 Descending Potomac TRACON
09:02PM 39.1833 -76.8000 57° Northeast 209 241 1,600 -600 Descending Potomac TRACON
09:03PM 39.1833 -76.7500 90° East 153 176 1,000 -660 Descending Potomac TRACON
09:04PM 39.1833 -76.7000 90° East 132 152 300 -720 Descending Potomac TRACON
09:06PM 39.1754 -76.6683 21° North  Level Estimated
09:13PM 39.1754 -76.6683 North  Level Estimated
09:14PM 39.1754 -76.6683 North  Level Estimated
09:15PM 39.1754 -76.6683 North  Level Estimated